Patuxent River Naval Air Station/Trapnell Field Aiport
KNHK : now visible

Aeroporto :











RITROVATECI SU...

 
LOGIN :

Iscrizione | Disclaimer

   EN    FR    IT 

 









Sommario :    VFR   VFR Marginale   IFR   IFR Intensivo   IFR Molto Intensivo
Visibilità : 
Base nubi : 
>= 8 km
>= 3000ft
5 / 8 km
1000 / 3000 ft
1500m / 5 km
500 / 1000 ft
800 / 1500m
200 / 500 ft
< 800m
< 200 ft
Simboli :   Temporali  Nebbia  Neve Forte  Precipitazioni Forti  Vento > 20 kt






- Altitudine del aeroporto : 39 ft


KNHK - Patuxent River Naval Air Station/Trapnell Field Aiport

ULTIMO METAR :
  • 250952Z COR 27003KT 10SM FEW250 14/14 A3029 RMK AO2 SLP258 T01440139

METARs OBSOLETI :
  • 250852Z AUTO 23003KT 10SM CLR 14/13 A3029 RMK AO2 SLP255 T01440133 55000 $
  • 250752Z AUTO 00000KT 10SM CLR 14/14 A3027 RMK AO2 SLP248 T01440139 $

TAF TAF KNHK
Valido dal 25 a 07 ore il 26 a 07 ore UTC


2507/2607 09008KT 9999 FEW050 FEW250 QNH3025INS
BECMG 2511/2513 VRB03KT 9999 FEW035 BKN050 QNH3022INS
BECMG 2516/2518 15010KT 9999 SCT012 BKN030 QNH3016INS
BECMG 2522/2600 18008KT 6000 BR BKN008 OVC015 QNH3010INS AUTOMATED SENSOR METWATCH 2507 TIL 2508 T16/2510Z T24/2523Z FN00237
FIR KZDC / America del Nord



MetMap, La meteo Aeronautica in un colpo d'occhio ! - Copyright ORBIFLY Dicembre 2007 - Disclaimer

ORBIFLY MET'MAP TEAM :

Programmazione e sviluppo : Alexandra Zaïnal
Concezione : Baudouin d'Aumeries
Aiuto per la programmazione : Marc-Olivier Méhu
Supporto tecnico e logistico : Manuel Goepfert
Aiuto per la traduzione : Arnaldo La Scala

Contatto : metmap@orbifly.com




FONTI E CREDITI :

   NOAA       Earth
Advisory